Airfield :
LOGIN :

Register | Disclaimer

   EN    FR    IT 

 










Legend :    VFR   Marginal VFR   IFR   Intensive IFR   Very Intensive IFR
Visi :
Ceiling :
>= 8 km
>= 3000ft
5 to 8 km
1000 to 3000 ft
1500m to 5 km
500 to 1000 ft
800 to 1500m
200 to 500 ft
< 800m
< 200 ft
Symbols :   Thunderstorms  Fog  Heavy snow  Heavy precipitations  Wind > 20 kt
SIGMETs :     Misc.  Thunderstorms  Icing  Turbulence  Mountain Waves  Volcanic Ashes






- Airport Elevation : 308 ft


ESIA - Karlsborg Air Base

CURRENT METAR :
  • 061350Z 07010KT 9999 OVC003 M04/M04 Q1022

EXPIRED METARs :
  • 061320Z 06012KT 9999 OVC003 M04/M04 Q1022
  • 061250Z 09010KT 9999 OVC003 M04/M04 Q1022
  • 061220Z 08009KT 9999 OVC003 M04/M04 Q1022
  • 061150Z 08010KT 9999 BKN003 M04/M04 Q1022
  • 061120Z 08010KT 9999 BKN004 M04/M04 Q1022
  • 061050Z 07009KT 9999 BKN005 M04/M04 Q1022
  • 061020Z 09008KT 9999 OVC004 M04/M04 Q1023
  • 060950Z 08007KT 9999 OVC003 M04/M04 Q1023
  • 060920Z 09007KT 9999 OVC004 M04/M04 Q1023

TAF AMD TAF ESIA
Valid from the 06 at 13:00 until the 06 at 15:00 UTC


061310Z 0613/0615 07008KT 9999 OVC002
PROB30 0613/0615 SCT005 BKN030 RMK MIL



MET'MAP, your aeronautical weather chart ! - Copyright ORBIFLY December 2007 - Disclaimer

ORBIFLY MET'MAP TEAM :

Programming & Development : Alexandra Zaïnal
Original concept : Baudouin d'Aumeries
Technical & hardware support : Manuel Goepfert
Assistance : Marc-Olivier Méhu




SOURCES & CREDITS :

   NOAA